sensor_id;sensor_type;location;lat;lon;timestamp;noise_LAeq;noise_LA_min;noise_LA_max;noise_LA01;noise_LA95
11999;Laerm;40817;51.520;9.954;2023-04-15T00:01:27;42.45;38.52;53.82;;
11999;Laerm;40817;51.520;9.954;2023-04-15T00:03:55;41.14;36.69;44.03;;
11999;Laerm;40817;51.520;9.954;2023-04-15T00:06:22;42.88;38.52;48.88;;
11999;Laerm;40817;51.520;9.954;2023-04-15T00:08:51;41.42;37.12;44.31;;
11999;Laerm;40817;51.520;9.954;2023-04-15T00:11:21;43.99;38.21;51.97;;
11999;Laerm;40817;51.520;9.954;2023-04-15T00:13:49;43.06;39.46;45.48;;
11999;Laerm;40817;51.520;9.954;2023-04-15T00:16:17;43.08;39.81;45.57;;
11999;Laerm;40817;51.520;9.954;2023-04-15T00:18:45;42.92;39.46;45.45;;
11999;Laerm;40817;51.520;9.954;2023-04-15T00:21:12;41.98;38.67;44.19;;
11999;Laerm;40817;51.520;9.954;2023-04-15T00:23:40;41.11;36.91;43.72;;
11999;Laerm;40817;51.520;9.954;2023-04-15T00:26:08;43.17;39.34;55.46;;
11999;Laerm;40817;51.520;9.954;2023-04-15T00:28:37;43.17;39.70;46.66;;
11999;Laerm;40817;51.520;9.954;2023-04-15T00:31:05;43.09;40.23;45.04;;
11999;Laerm;40817;51.520;9.954;2023-04-15T00:33:32;42.21;38.37;49.53;;
11999;Laerm;40817;51.520;9.954;2023-04-15T00:36:03;42.22;38.67;44.43;;
11999;Laerm;40817;51.520;9.954;2023-04-15T00:38:31;42.62;38.21;45.63;;
11999;Laerm;40817;51.520;9.954;2023-04-15T00:40:59;41.55;38.05;43.86;;
11999;Laerm;40817;51.520;9.954;2023-04-15T00:43:27;41.92;38.05;45.27;;
11999;Laerm;40817;51.520;9.954;2023-04-15T00:45:58;41.76;36.91;44.62;;
11999;Laerm;40817;51.520;9.954;2023-04-15T00:48:27;43.34;40.23;45.11;;
11999;Laerm;40817;51.520;9.954;2023-04-15T00:50:57;42.94;38.95;45.36;;
11999;Laerm;40817;51.520;9.954;2023-04-15T00:53:24;41.67;37.12;45.63;;
11999;Laerm;40817;51.520;9.954;2023-04-15T00:55:53;41.98;37.52;44.47;;
11999;Laerm;40817;51.520;9.954;2023-04-15T00:58:20;42.63;38.81;45.54;;
11999;Laerm;40817;51.520;9.954;2023-04-15T01:00:48;42.40;38.37;44.66;;
11999;Laerm;40817;51.520;9.954;2023-04-15T01:03:20;42.18;37.52;45.23;;
11999;Laerm;40817;51.520;9.954;2023-04-15T01:05:49;41.50;37.12;52.42;;
11999;Laerm;40817;51.520;9.954;2023-04-15T01:08:18;47.73;37.88;60.24;;
11999;Laerm;40817;51.520;9.954;2023-04-15T01:10:46;43.05;38.21;51.23;;
11999;Laerm;40817;51.520;9.954;2023-04-15T01:13:13;40.36;35.94;43.24;;
11999;Laerm;40817;51.520;9.954;2023-04-15T01:15:41;42.53;37.88;64.49;;
11999;Laerm;40817;51.520;9.954;2023-04-15T01:18:09;43.27;37.88;49.55;;
11999;Laerm;40817;51.520;9.954;2023-04-15T01:20:39;41.99;36.45;44.47;;
11999;Laerm;40817;51.520;9.954;2023-04-15T01:23:06;41.29;36.45;45.17;;
11999;Laerm;40817;51.520;9.954;2023-04-15T01:25:35;40.79;35.94;43.72;;
11999;Laerm;40817;51.520;9.954;2023-04-15T01:28:03;41.06;37.32;43.51;;
11999;Laerm;40817;51.520;9.954;2023-04-15T01:30:33;41.86;37.32;45.42;;
11999;Laerm;40817;51.520;9.954;2023-04-15T01:33:01;41.74;36.91;46.25;;
11999;Laerm;40817;51.520;9.954;2023-04-15T01:35:28;42.03;37.70;62.18;;
11999;Laerm;40817;51.520;9.954;2023-04-15T01:38:01;41.92;38.21;55.43;;
11999;Laerm;40817;51.520;9.954;2023-04-15T01:40:31;42.27;38.32;47.24;;
11999;Laerm;40817;51.520;9.954;2023-04-15T01:43:01;43.34;38.37;52.82;;
11999;Laerm;40817;51.520;9.954;2023-04-15T01:45:28;42.15;38.52;44.47;;
11999;Laerm;40817;51.520;9.954;2023-04-15T01:47:56;41.55;36.69;44.83;;
11999;Laerm;40817;51.520;9.954;2023-04-15T01:50:23;41.76;36.69;44.69;;
11999;Laerm;40817;51.520;9.954;2023-04-15T01:52:52;42.54;38.52;56.68;;
11999;Laerm;40817;51.520;9.954;2023-04-15T01:55:19;41.71;37.12;45.63;;
11999;Laerm;40817;51.520;9.954;2023-04-15T01:57:47;41.73;37.70;44.54;;
11999;Laerm;40817;51.520;9.954;2023-04-15T02:00:16;40.44;36.20;45.14;;
11999;Laerm;40817;51.520;9.954;2023-04-15T02:02:50;40.49;35.36;46.02;;
11999;Laerm;40817;51.520;9.954;2023-04-15T02:05:17;40.62;36.77;45.14;;
11999;Laerm;40817;51.520;9.954;2023-04-15T02:07:45;40.86;36.45;44.65;;
11999;Laerm;40817;51.520;9.954;2023-04-15T02:10:13;43.05;35.94;48.02;;
11999;Laerm;40817;51.520;9.954;2023-04-15T02:12:42;41.11;36.69;44.35;;
11999;Laerm;40817;51.520;9.954;2023-04-15T02:15:10;40.66;36.20;44.35;;
11999;Laerm;40817;51.520;9.954;2023-04-15T02:17:39;40.74;34.69;43.81;;
11999;Laerm;40817;51.520;9.954;2023-04-15T02:20:09;41.38;36.91;44.97;;
11999;Laerm;40817;51.520;9.954;2023-04-15T02:22:37;41.42;37.52;45.73;;
11999;Laerm;40817;51.520;9.954;2023-04-15T02:25:07;41.50;36.91;45.20;;
11999;Laerm;40817;51.520;9.954;2023-04-15T02:27:35;41.17;37.12;44.83;;
11999;Laerm;40817;51.520;9.954;2023-04-15T02:30:04;46.15;39.21;58.84;;
11999;Laerm;40817;51.520;9.954;2023-04-15T02:32:32;41.16;36.45;44.73;;
11999;Laerm;40817;51.520;9.954;2023-04-15T02:35:04;40.45;36.20;44.39;;
11999;Laerm;40817;51.520;9.954;2023-04-15T02:37:37;40.45;36.69;44.27;;
11999;Laerm;40817;51.520;9.954;2023-04-15T02:40:10;40.09;35.36;43.14;;
11999;Laerm;40817;51.520;9.954;2023-04-15T02:42:38;39.91;35.01;43.09;;
11999;Laerm;40817;51.520;9.954;2023-04-15T02:45:08;42.16;34.69;44.90;;
11999;Laerm;40817;51.520;9.954;2023-04-15T02:47:35;41.25;36.69;44.27;;
11999;Laerm;40817;51.520;9.954;2023-04-15T02:50:09;43.47;36.69;53.87;;
11999;Laerm;40817;51.520;9.954;2023-04-15T02:52:39;41.30;36.69;45.57;;
11999;Laerm;40817;51.520;9.954;2023-04-15T02:55:08;44.72;37.32;61.46;;
11999;Laerm;40817;51.520;9.954;2023-04-15T02:57:36;42.49;36.45;50.86;;
11999;Laerm;40817;51.520;9.954;2023-04-15T03:00:06;40.75;35.59;43.72;;
11999;Laerm;40817;51.520;9.954;2023-04-15T03:02:35;42.30;38.05;48.37;;
11999;Laerm;40817;51.520;9.954;2023-04-15T03:05:25;42.10;36.45;49.98;;
11999;Laerm;40817;51.520;9.954;2023-04-15T03:08:12;41.45;37.12;45.94;;
11999;Laerm;40817;51.520;9.954;2023-04-15T03:11:00;42.64;37.70;45.63;;
11999;Laerm;40817;51.520;9.954;2023-04-15T03:13:28;41.38;37.70;43.94;;
11999;Laerm;40817;51.520;9.954;2023-04-15T03:15:56;41.66;37.88;46.40;;
11999;Laerm;40817;51.520;9.954;2023-04-15T03:18:24;42.76;35.94;55.01;;
11999;Laerm;40817;51.520;9.954;2023-04-15T03:20:53;40.09;36.20;43.29;;
11999;Laerm;40817;51.520;9.954;2023-04-15T03:23:20;40.53;35.36;44.76;;
11999;Laerm;40817;51.520;9.954;2023-04-15T03:25:48;40.15;35.94;43.54;;
11999;Laerm;40817;51.520;9.954;2023-04-15T03:28:16;40.47;35.66;44.11;;
11999;Laerm;40817;51.520;9.954;2023-04-15T03:30:44;41.53;37.52;45.11;;
11999;Laerm;40817;51.520;9.954;2023-04-15T03:33:11;40.62;36.69;44.89;;
11999;Laerm;40817;51.520;9.954;2023-04-15T03:35:39;41.05;36.91;47.74;;
11999;Laerm;40817;51.520;9.954;2023-04-15T03:38:09;41.30;37.12;49.58;;
11999;Laerm;40817;51.520;9.954;2023-04-15T03:40:37;41.38;37.32;47.98;;
11999;Laerm;40817;51.520;9.954;2023-04-15T03:43:05;40.89;36.69;46.43;;
11999;Laerm;40817;51.520;9.954;2023-04-15T03:45:33;43.13;37.12;51.70;;
11999;Laerm;40817;51.520;9.954;2023-04-15T03:48:00;41.99;37.52;48.43;;
11999;Laerm;40817;51.520;9.954;2023-04-15T03:50:28;41.39;37.12;47.08;;
11999;Laerm;40817;51.520;9.954;2023-04-15T03:52:56;42.32;37.88;58.91;;
11999;Laerm;40817;51.520;9.954;2023-04-15T03:55:25;42.23;36.69;52.87;;
11999;Laerm;40817;51.520;9.954;2023-04-15T03:57:53;41.64;37.70;55.85;;
11999;Laerm;40817;51.520;9.954;2023-04-15T04:00:21;41.84;38.05;54.08;;
11999;Laerm;40817;51.520;9.954;2023-04-15T04:02:48;52.75;38.52;77.81;;
11999;Laerm;40817;51.520;9.954;2023-04-15T04:05:17;43.03;37.32;63.96;;
11999;Laerm;40817;51.520;9.954;2023-04-15T04:07:44;41.08;37.32;49.59;;
11999;Laerm;40817;51.520;9.954;2023-04-15T04:10:12;40.96;36.69;48.28;;
11999;Laerm;40817;51.520;9.954;2023-04-15T04:12:42;41.65;37.88;51.75;;
11999;Laerm;40817;51.520;9.954;2023-04-15T04:15:10;42.00;37.52;50.28;;
11999;Laerm;40817;51.520;9.954;2023-04-15T04:17:38;42.07;38.21;46.02;;
11999;Laerm;40817;51.520;9.954;2023-04-15T04:20:07;41.41;38.05;47.46;;
11999;Laerm;40817;51.520;9.954;2023-04-15T04:22:37;41.90;38.37;57.98;;
11999;Laerm;40817;51.520;9.954;2023-04-15T04:25:07;42.31;36.91;49.66;;
11999;Laerm;40817;51.520;9.954;2023-04-15T04:27:48;42.62;39.21;56.61;;
11999;Laerm;40817;51.520;9.954;2023-04-15T04:30:16;41.62;38.37;49.70;;
11999;Laerm;40817;51.520;9.954;2023-04-15T04:32:44;42.66;38.67;64.14;;
11999;Laerm;40817;51.520;9.954;2023-04-15T04:35:12;46.59;39.08;66.55;;
11999;Laerm;40817;51.520;9.954;2023-04-15T04:37:40;42.62;37.52;55.40;;
11999;Laerm;40817;51.520;9.954;2023-04-15T04:40:10;42.38;38.21;55.77;;
11999;Laerm;40817;51.520;9.954;2023-04-15T04:42:38;43.64;40.03;55.90;;
11999;Laerm;40817;51.520;9.954;2023-04-15T04:45:08;44.12;40.89;54.56;;
11999;Laerm;40817;51.520;9.954;2023-04-15T04:47:37;44.88;40.23;64.25;;
11999;Laerm;40817;51.520;9.954;2023-04-15T04:50:07;43.73;39.34;65.40;;
11999;Laerm;40817;51.520;9.954;2023-04-15T04:52:36;44.66;39.81;70.40;;
11999;Laerm;40817;51.520;9.954;2023-04-15T04:55:05;46.16;40.62;67.18;;
11999;Laerm;40817;51.520;9.954;2023-04-15T04:57:34;45.78;39.34;68.45;;
11999;Laerm;40817;51.520;9.954;2023-04-15T05:00:04;46.45;40.43;65.89;;
11999;Laerm;40817;51.520;9.954;2023-04-15T05:02:40;44.62;41.30;62.61;;
11999;Laerm;40817;51.520;9.954;2023-04-15T05:05:09;43.77;39.92;64.57;;
11999;Laerm;40817;51.520;9.954;2023-04-15T05:07:38;43.60;38.81;64.61;;
11999;Laerm;40817;51.520;9.954;2023-04-15T05:10:08;44.73;39.21;64.42;;
11999;Laerm;40817;51.520;9.954;2023-04-15T05:12:36;47.02;38.52;66.06;;
11999;Laerm;40817;51.520;9.954;2023-04-15T05:15:06;44.88;39.70;58.46;;
11999;Laerm;40817;51.520;9.954;2023-04-15T05:17:34;44.22;38.95;63.60;;
11999;Laerm;40817;51.520;9.954;2023-04-15T05:20:04;43.80;39.46;63.47;;
11999;Laerm;40817;51.520;9.954;2023-04-15T05:22:31;43.77;39.46;59.70;;
11999;Laerm;40817;51.520;9.954;2023-04-15T05:24:59;45.26;40.13;57.76;;
11999;Laerm;40817;51.520;9.954;2023-04-15T05:27:26;44.21;39.81;63.07;;
11999;Laerm;40817;51.520;9.954;2023-04-15T05:29:54;43.71;38.95;71.84;;
11999;Laerm;40817;51.520;9.954;2023-04-15T05:32:22;46.29;39.34;64.29;;
11999;Laerm;40817;51.520;9.954;2023-04-15T05:34:49;44.78;39.70;58.74;;
11999;Laerm;40817;51.520;9.954;2023-04-15T05:37:18;43.77;39.21;58.92;;
11999;Laerm;40817;51.520;9.954;2023-04-15T05:39:47;44.39;39.70;72.08;;
11999;Laerm;40817;51.520;9.954;2023-04-15T05:42:14;44.45;39.70;71.61;;
11999;Laerm;40817;51.520;9.954;2023-04-15T05:44:42;45.77;39.34;72.76;;
11999;Laerm;40817;51.520;9.954;2023-04-15T05:47:10;46.53;38.81;74.43;;
11999;Laerm;40817;51.520;9.954;2023-04-15T05:49:37;50.33;39.58;76.34;;
11999;Laerm;40817;51.520;9.954;2023-04-15T05:52:05;51.49;39.70;76.29;;
11999;Laerm;40817;51.520;9.954;2023-04-15T05:54:34;50.97;40.53;75.43;;
11999;Laerm;40817;51.520;9.954;2023-04-15T05:57:02;52.20;41.06;74.58;;
11999;Laerm;40817;51.520;9.954;2023-04-15T05:59:30;53.48;41.30;76.26;;
11999;Laerm;40817;51.520;9.954;2023-04-15T06:01:58;53.05;40.53;75.45;;
11999;Laerm;40817;51.520;9.954;2023-04-15T06:04:26;51.54;40.43;75.96;;
11999;Laerm;40817;51.520;9.954;2023-04-15T06:06:54;51.86;40.03;76.09;;
11999;Laerm;40817;51.520;9.954;2023-04-15T06:09:21;52.78;40.03;76.49;;
11999;Laerm;40817;51.520;9.954;2023-04-15T06:11:51;54.93;41.53;76.35;;
11999;Laerm;40817;51.520;9.954;2023-04-15T06:14:18;55.87;41.14;76.38;;
11999;Laerm;40817;51.520;9.954;2023-04-15T06:16:46;54.49;41.06;76.43;;
11999;Laerm;40817;51.520;9.954;2023-04-15T06:19:13;55.74;41.06;76.47;;
11999;Laerm;40817;51.520;9.954;2023-04-15T06:21:41;54.04;40.89;75.80;;
11999;Laerm;40817;51.520;9.954;2023-04-15T06:24:19;52.71;40.62;76.46;;
11999;Laerm;40817;51.520;9.954;2023-04-15T06:26:46;53.12;39.21;75.24;;
11999;Laerm;40817;51.520;9.954;2023-04-15T06:29:16;52.31;40.62;75.01;;
11999;Laerm;40817;51.520;9.954;2023-04-15T06:31:43;52.03;40.13;75.98;;
11999;Laerm;40817;51.520;9.954;2023-04-15T06:34:11;52.73;40.33;77.46;;
11999;Laerm;40817;51.520;9.954;2023-04-15T06:36:40;51.44;40.33;76.32;;
11999;Laerm;40817;51.520;9.954;2023-04-15T06:39:07;52.84;41.53;76.74;;
11999;Laerm;40817;51.520;9.954;2023-04-15T06:41:35;53.80;41.61;75.97;;
11999;Laerm;40817;51.520;9.954;2023-04-15T06:44:03;54.96;41.14;77.52;;
11999;Laerm;40817;51.520;9.954;2023-04-15T06:46:33;54.87;41.53;77.78;;
11999;Laerm;40817;51.520;9.954;2023-04-15T06:49:01;56.76;42.53;79.12;;
11999;Laerm;40817;51.520;9.954;2023-04-15T06:51:29;56.75;43.81;80.66;;
11999;Laerm;40817;51.520;9.954;2023-04-15T06:53:57;56.64;43.68;80.05;;
11999;Laerm;40817;51.520;9.954;2023-04-15T06:56:25;57.87;44.97;80.77;;
11999;Laerm;40817;51.520;9.954;2023-04-15T06:58:53;55.92;43.99;79.13;;
11999;Laerm;40817;51.520;9.954;2023-04-15T07:01:21;55.23;43.24;79.31;;
11999;Laerm;40817;51.520;9.954;2023-04-15T07:03:50;54.08;43.54;77.68;;
11999;Laerm;40817;51.520;9.954;2023-04-15T07:06:17;53.46;42.53;77.88;;
11999;Laerm;40817;51.520;9.954;2023-04-15T07:08:45;52.85;42.98;75.12;;
11999;Laerm;40817;51.520;9.954;2023-04-15T07:11:13;51.40;42.53;79.17;;
11999;Laerm;40817;51.520;9.954;2023-04-15T07:13:41;52.58;41.46;81.93;;
11999;Laerm;40817;51.520;9.954;2023-04-15T07:16:08;53.63;42.29;79.10;;
11999;Laerm;40817;51.520;9.954;2023-04-15T07:18:36;53.72;43.24;76.86;;
11999;Laerm;40817;51.520;9.954;2023-04-15T07:21:05;53.41;42.47;79.47;;
11999;Laerm;40817;51.520;9.954;2023-04-15T07:23:33;53.01;42.03;77.96;;
11999;Laerm;40817;51.520;9.954;2023-04-15T07:26:02;51.79;41.53;78.60;;
11999;Laerm;40817;51.520;9.954;2023-04-15T07:28:30;53.54;41.88;78.60;;
11999;Laerm;40817;51.520;9.954;2023-04-15T07:30:58;54.29;41.75;79.42;;
11999;Laerm;40817;51.520;9.954;2023-04-15T07:33:26;52.13;41.03;80.78;;
11999;Laerm;40817;51.520;9.954;2023-04-15T07:35:54;51.29;41.53;78.18;;
11999;Laerm;40817;51.520;9.954;2023-04-15T07:38:23;50.31;41.46;77.07;;
11999;Laerm;40817;51.520;9.954;2023-04-15T07:40:51;50.12;41.53;78.91;;
11999;Laerm;40817;51.520;9.954;2023-04-15T07:43:19;54.55;42.35;79.70;;
11999;Laerm;40817;51.520;9.954;2023-04-15T07:45:47;52.45;41.38;80.10;;
11999;Laerm;40817;51.520;9.954;2023-04-15T07:48:15;50.69;41.46;77.67;;
11999;Laerm;40817;51.520;9.954;2023-04-15T07:50:43;52.11;41.89;80.54;;
11999;Laerm;40817;51.520;9.954;2023-04-15T07:53:12;51.57;41.75;76.90;;
11999;Laerm;40817;51.520;9.954;2023-04-15T07:55:42;53.40;42.16;80.31;;
11999;Laerm;40817;51.520;9.954;2023-04-15T07:58:09;49.89;42.03;72.95;;
11999;Laerm;40817;51.520;9.954;2023-04-15T08:00:37;49.71;42.22;71.29;;
11999;Laerm;40817;51.520;9.954;2023-04-15T08:03:05;51.87;41.82;79.53;;
11999;Laerm;40817;51.520;9.954;2023-04-15T08:05:33;51.51;41.61;76.66;;
11999;Laerm;40817;51.520;9.954;2023-04-15T08:08:01;51.03;41.61;78.33;;
11999;Laerm;40817;51.520;9.954;2023-04-15T08:10:29;52.00;41.22;79.47;;
11999;Laerm;40817;51.520;9.954;2023-04-15T08:12:58;50.81;41.61;74.24;;
11999;Laerm;40817;51.520;9.954;2023-04-15T08:15:27;52.46;41.96;77.71;;
11999;Laerm;40817;51.520;9.954;2023-04-15T08:17:55;52.32;41.89;78.54;;
11999;Laerm;40817;51.520;9.954;2023-04-15T08:20:23;52.07;41.30;78.59;;
11999;Laerm;40817;51.520;9.954;2023-04-15T08:22:51;50.94;41.41;78.86;;
11999;Laerm;40817;51.520;9.954;2023-04-15T08:25:19;50.71;38.67;78.36;;
11999;Laerm;40817;51.520;9.954;2023-04-15T08:27:47;50.50;40.89;80.34;;
11999;Laerm;40817;51.520;9.954;2023-04-15T08:30:16;50.97;41.38;80.62;;
11999;Laerm;40817;51.520;9.954;2023-04-15T08:32:45;51.78;41.30;80.29;;
11999;Laerm;40817;51.520;9.954;2023-04-15T08:35:16;51.77;40.98;78.61;;
11999;Laerm;40817;51.520;9.954;2023-04-15T08:37:44;52.29;41.82;78.86;;
11999;Laerm;40817;51.520;9.954;2023-04-15T08:40:12;51.50;41.38;76.96;;
11999;Laerm;40817;51.520;9.954;2023-04-15T08:42:44;52.61;41.89;78.55;;
11999;Laerm;40817;51.520;9.954;2023-04-15T08:45:18;55.01;42.71;80.35;;
11999;Laerm;40817;51.520;9.954;2023-04-15T08:47:51;54.44;42.47;78.53;;
11999;Laerm;40817;51.520;9.954;2023-04-15T08:50:21;54.73;43.04;79.39;;
11999;Laerm;40817;51.520;9.954;2023-04-15T08:52:48;53.10;42.47;75.81;;
11999;Laerm;40817;51.520;9.954;2023-04-15T08:55:21;54.58;42.29;78.82;;
11999;Laerm;40817;51.520;9.954;2023-04-15T08:57:50;51.57;41.46;78.11;;
11999;Laerm;40817;51.520;9.954;2023-04-15T09:00:20;51.67;41.68;80.74;;
11999;Laerm;40817;51.520;9.954;2023-04-15T09:02:48;49.91;40.98;78.37;;
11999;Laerm;40817;51.520;9.954;2023-04-15T09:05:16;51.90;41.68;81.07;;
11999;Laerm;40817;51.520;9.954;2023-04-15T09:07:43;48.55;41.06;72.13;;
11999;Laerm;40817;51.520;9.954;2023-04-15T09:10:12;58.47;41.19;78.76;;
11999;Laerm;40817;51.520;9.954;2023-04-15T09:12:40;48.36;41.14;72.12;;
11999;Laerm;40817;51.520;9.954;2023-04-15T09:15:11;48.45;41.06;76.82;;
11999;Laerm;40817;51.520;9.954;2023-04-15T09:17:43;49.53;40.88;80.05;;
11999;Laerm;40817;51.520;9.954;2023-04-15T09:20:14;51.46;41.06;78.30;;
11999;Laerm;40817;51.520;9.954;2023-04-15T09:22:45;51.27;41.30;81.27;;
11999;Laerm;40817;51.520;9.954;2023-04-15T09:25:28;49.14;40.33;76.40;;
11999;Laerm;40817;51.520;9.954;2023-04-15T09:27:59;50.04;41.06;79.05;;
11999;Laerm;40817;51.520;9.954;2023-04-15T09:30:28;52.05;40.98;80.23;;
11999;Laerm;40817;51.520;9.954;2023-04-15T09:33:00;52.34;41.06;79.86;;
11999;Laerm;40817;51.520;9.954;2023-04-15T09:35:30;53.30;41.81;80.37;;
11999;Laerm;40817;51.520;9.954;2023-04-15T09:38:04;51.79;40.80;80.91;;
11999;Laerm;40817;51.520;9.954;2023-04-15T09:40:34;51.26;40.80;78.36;;
11999;Laerm;40817;51.520;9.954;2023-04-15T09:43:03;53.81;41.22;80.14;;
11999;Laerm;40817;51.520;9.954;2023-04-15T09:45:33;50.80;40.98;77.57;;
11999;Laerm;40817;51.520;9.954;2023-04-15T09:48:18;50.53;40.71;77.97;;
11999;Laerm;40817;51.520;9.954;2023-04-15T09:50:48;52.99;40.23;79.22;;
11999;Laerm;40817;51.520;9.954;2023-04-15T09:53:20;52.02;41.38;80.95;;
11999;Laerm;40817;51.520;9.954;2023-04-15T09:55:50;54.01;41.61;79.71;;
11999;Laerm;40817;51.520;9.954;2023-04-15T09:58:20;48.97;40.23;73.08;;
11999;Laerm;40817;51.520;9.954;2023-04-15T10:00:51;50.22;40.89;78.42;;
11999;Laerm;40817;51.520;9.954;2023-04-15T10:03:24;56.27;41.53;78.62;;
11999;Laerm;40817;51.520;9.954;2023-04-15T10:05:55;49.73;40.89;72.29;;
11999;Laerm;40817;51.520;9.954;2023-04-15T10:08:27;54.09;41.61;78.70;;
11999;Laerm;40817;51.520;9.954;2023-04-15T10:10:55;49.91;41.30;78.01;;
11999;Laerm;40817;51.520;9.954;2023-04-15T10:13:25;54.38;43.77;78.46;;
11999;Laerm;40817;51.520;9.954;2023-04-15T10:15:58;54.17;43.81;81.64;;
11999;Laerm;40817;51.520;9.954;2023-04-15T10:18:28;53.47;40.98;79.31;;
11999;Laerm;40817;51.520;9.954;2023-04-15T10:21:00;50.59;41.38;79.18;;
11999;Laerm;40817;51.520;9.954;2023-04-15T10:23:28;52.02;40.98;81.31;;
11999;Laerm;40817;51.520;9.954;2023-04-15T10:25:57;49.77;40.33;79.13;;
11999;Laerm;40817;51.520;9.954;2023-04-15T10:28:25;50.78;41.53;80.28;;
11999;Laerm;40817;51.520;9.954;2023-04-15T10:30:53;52.07;40.89;80.56;;
11999;Laerm;40817;51.520;9.954;2023-04-15T10:33:23;48.71;40.89;76.67;;
11999;Laerm;40817;51.520;9.954;2023-04-15T10:35:54;49.20;40.80;71.08;;
11999;Laerm;40817;51.520;9.954;2023-04-15T10:38:34;50.84;40.33;81.10;;
11999;Laerm;40817;51.520;9.954;2023-04-15T10:41:14;49.59;39.92;79.64;;
11999;Laerm;40817;51.520;9.954;2023-04-15T10:43:49;46.33;40.33;71.02;;
11999;Laerm;40817;51.520;9.954;2023-04-15T10:46:21;47.59;39.92;80.32;;
11999;Laerm;40817;51.520;9.954;2023-04-15T10:48:51;48.15;40.62;79.29;;
11999;Laerm;40817;51.520;9.954;2023-04-15T10:51:30;43.44;39.21;59.04;;
11999;Laerm;40817;51.520;9.954;2023-04-15T10:53:59;45.09;40.53;72.89;;
11999;Laerm;40817;51.520;9.954;2023-04-15T10:56:28;44.53;40.89;61.03;;
11999;Laerm;40817;51.520;9.954;2023-04-15T10:58:59;49.85;40.98;71.31;;
11999;Laerm;40817;51.520;9.954;2023-04-15T11:01:53;45.95;40.33;67.26;;
11999;Laerm;40817;51.520;9.954;2023-04-15T11:04:54;43.80;39.08;69.07;;
11999;Laerm;40817;51.520;9.954;2023-04-15T11:07:40;42.79;39.58;59.94;;
11999;Laerm;40817;51.520;9.954;2023-04-15T11:10:51;44.15;39.92;66.97;;
11999;Laerm;40817;51.520;9.954;2023-04-15T11:13:27;43.41;39.92;59.32;;
11999;Laerm;40817;51.520;9.954;2023-04-15T11:16:01;46.59;40.03;69.49;;
11999;Laerm;40817;51.520;9.954;2023-04-15T11:18:33;58.97;41.06;75.19;;
11999;Laerm;40817;51.520;9.954;2023-04-15T11:21:04;51.48;41.38;76.86;;
11999;Laerm;40817;51.520;9.954;2023-04-15T11:23:37;51.25;40.80;65.01;;
11999;Laerm;40817;51.520;9.954;2023-04-15T11:26:07;54.29;38.67;72.03;;
11999;Laerm;40817;51.520;9.954;2023-04-15T11:28:39;52.08;38.81;69.31;;
11999;Laerm;40817;51.520;9.954;2023-04-15T11:31:10;43.94;39.81;61.65;;
11999;Laerm;40817;51.520;9.954;2023-04-15T11:33:45;44.25;40.33;67.48;;
11999;Laerm;40817;51.520;9.954;2023-04-15T11:36:13;43.40;40.03;59.63;;
11999;Laerm;40817;51.520;9.954;2023-04-15T11:38:46;44.16;39.21;58.72;;
11999;Laerm;40817;51.520;9.954;2023-04-15T11:41:14;43.39;40.43;54.66;;
11999;Laerm;40817;51.520;9.954;2023-04-15T11:43:46;43.20;40.53;51.10;;
11999;Laerm;40817;51.520;9.954;2023-04-15T11:46:14;42.93;39.34;56.60;;
11999;Laerm;40817;51.520;9.954;2023-04-15T11:48:44;43.33;40.13;58.45;;
11999;Laerm;40817;51.520;9.954;2023-04-15T11:51:12;43.25;39.92;58.25;;
11999;Laerm;40817;51.520;9.954;2023-04-15T11:53:43;43.39;40.13;59.38;;
11999;Laerm;40817;51.520;9.954;2023-04-15T11:56:19;43.47;40.23;56.69;;
11999;Laerm;40817;51.520;9.954;2023-04-15T11:58:47;47.83;40.33;65.10;;
11999;Laerm;40817;51.520;9.954;2023-04-15T12:01:16;47.70;38.52;61.15;;
11999;Laerm;40817;51.520;9.954;2023-04-15T12:03:46;46.31;40.23;63.70;;
11999;Laerm;40817;51.520;9.954;2023-04-15T12:06:16;43.58;39.70;58.84;;
11999;Laerm;40817;51.520;9.954;2023-04-15T12:08:59;44.78;39.70;69.43;;
11999;Laerm;40817;51.520;9.954;2023-04-15T12:11:33;46.23;40.03;66.44;;
11999;Laerm;40817;51.520;9.954;2023-04-15T12:14:09;50.67;41.06;67.11;;
11999;Laerm;40817;51.520;9.954;2023-04-15T12:16:41;43.36;40.13;54.19;;
11999;Laerm;40817;51.520;9.954;2023-04-15T12:19:11;48.25;39.46;64.31;;
11999;Laerm;40817;51.520;9.954;2023-04-15T12:21:43;46.79;40.13;63.08;;
11999;Laerm;40817;51.520;9.954;2023-04-15T12:24:12;43.41;40.33;59.72;;
11999;Laerm;40817;51.520;9.954;2023-04-15T12:26:46;43.81;40.80;66.85;;
11999;Laerm;40817;51.520;9.954;2023-04-15T12:29:16;45.01;40.53;69.30;;
11999;Laerm;40817;51.520;9.954;2023-04-15T12:31:49;46.65;40.62;59.82;;
11999;Laerm;40817;51.520;9.954;2023-04-15T12:34:18;47.45;40.03;68.01;;
11999;Laerm;40817;51.520;9.954;2023-04-15T12:36:51;44.78;39.99;75.66;;
11999;Laerm;40817;51.520;9.954;2023-04-15T12:39:22;48.20;39.70;78.11;;
11999;Laerm;40817;51.520;9.954;2023-04-15T12:41:52;43.27;39.34;52.84;;
11999;Laerm;40817;51.520;9.954;2023-04-15T12:44:21;44.26;40.62;55.79;;
11999;Laerm;40817;51.520;9.954;2023-04-15T12:46:50;44.94;40.13;55.97;;
11999;Laerm;40817;51.520;9.954;2023-04-15T12:49:17;44.33;39.58;57.92;;
11999;Laerm;40817;51.520;9.954;2023-04-15T12:51:48;45.44;39.92;65.19;;
11999;Laerm;40817;51.520;9.954;2023-04-15T12:54:16;43.37;40.13;51.35;;
11999;Laerm;40817;51.520;9.954;2023-04-15T12:56:44;43.90;39.81;66.98;;
11999;Laerm;40817;51.520;9.954;2023-04-15T12:59:14;43.51;39.70;62.39;;
11999;Laerm;40817;51.520;9.954;2023-04-15T13:01:43;44.44;40.03;56.36;;
11999;Laerm;40817;51.520;9.954;2023-04-15T13:04:11;43.41;40.23;61.64;;
11999;Laerm;40817;51.520;9.954;2023-04-15T13:06:39;43.54;40.23;64.99;;
11999;Laerm;40817;51.520;9.954;2023-04-15T13:09:06;44.43;38.05;61.24;;
11999;Laerm;40817;51.520;9.954;2023-04-15T13:11:34;46.00;40.45;67.44;;
11999;Laerm;40817;51.520;9.954;2023-04-15T13:14:04;53.20;40.23;68.27;;
11999;Laerm;40817;51.520;9.954;2023-04-15T13:16:33;48.64;39.92;64.28;;
11999;Laerm;40817;51.520;9.954;2023-04-15T13:19:02;54.97;40.79;71.32;;
11999;Laerm;40817;51.520;9.954;2023-04-15T13:21:31;58.81;39.46;74.25;;
11999;Laerm;40817;51.520;9.954;2023-04-15T13:24:01;52.85;40.03;73.42;;
11999;Laerm;40817;51.520;9.954;2023-04-15T13:26:28;44.79;40.88;62.38;;
11999;Laerm;40817;51.520;9.954;2023-04-15T13:28:56;43.61;40.62;62.83;;
11999;Laerm;40817;51.520;9.954;2023-04-15T13:31:23;51.70;40.80;72.32;;
11999;Laerm;40817;51.520;9.954;2023-04-15T13:33:53;44.48;38.95;55.99;;
11999;Laerm;40817;51.520;9.954;2023-04-15T13:36:20;44.86;40.43;62.88;;
11999;Laerm;40817;51.520;9.954;2023-04-15T13:38:48;45.95;40.53;67.70;;
11999;Laerm;40817;51.520;9.954;2023-04-15T13:41:15;48.99;40.23;72.72;;
11999;Laerm;40817;51.520;9.954;2023-04-15T13:43:43;49.60;40.18;66.69;;
11999;Laerm;40817;51.520;9.954;2023-04-15T13:46:10;44.42;40.33;63.15;;
11999;Laerm;40817;51.520;9.954;2023-04-15T13:48:38;48.68;40.71;64.46;;
11999;Laerm;40817;51.520;9.954;2023-04-15T13:51:07;43.65;39.81;51.75;;
11999;Laerm;40817;51.520;9.954;2023-04-15T13:53:34;45.26;39.81;64.27;;
11999;Laerm;40817;51.520;9.954;2023-04-15T13:56:03;45.84;40.43;63.78;;
11999;Laerm;40817;51.520;9.954;2023-04-15T13:58:30;47.27;40.43;65.69;;